createdAt,value
2018-02-08T00:11:44.909Z,125.75
2018-02-08T00:14:13.707Z,107.72
2018-02-08T00:16:42.577Z,110.70
2018-02-08T00:19:10.679Z,117.03
2018-02-08T00:21:39.795Z,122.90
2018-02-08T00:24:09.844Z,109.07
2018-02-08T00:26:38.329Z,111.10
2018-02-08T00:29:07.728Z,124.57
2018-02-08T00:31:37.295Z,113.62
2018-02-08T00:51:22.896Z,122.05
2018-02-08T00:53:51.647Z,111.22
2018-02-08T00:56:21.048Z,104.45
2018-02-08T00:58:49.752Z,112.00
2018-02-08T01:01:18.099Z,115.75
2018-02-08T01:03:46.936Z,136.23
2018-02-08T01:06:15.059Z,114.30
2018-02-08T01:08:44.082Z,125.15
2018-02-08T01:11:13.047Z,121.43
2018-02-08T01:30:59.153Z,116.47
2018-02-08T01:33:28.220Z,108.72
2018-02-08T01:35:57.438Z,123.50
2018-02-08T01:38:27.087Z,113.32
2018-02-08T01:40:56.726Z,105.97
2018-02-08T01:43:26.353Z,114.60
2018-02-08T01:45:55.440Z,130.50
2018-02-08T01:48:23.539Z,112.62
2018-02-08T01:50:52.035Z,129.50
2018-02-08T02:10:40.564Z,135.23
2018-02-08T02:13:09.534Z,130.87
2018-02-08T02:15:38.112Z,128.77
2018-02-08T02:18:06.179Z,134.65
2018-02-08T02:20:34.752Z,141.30
2018-02-08T02:23:03.345Z,143.05
2018-02-08T02:25:32.128Z,136.90
2018-02-08T02:28:01.200Z,142.40
2018-02-08T02:30:30.023Z,130.00
2018-02-08T02:50:16.841Z,113.70
2018-02-08T02:52:45.737Z,108.63
2018-02-08T02:55:15.001Z,115.05
2018-02-08T02:57:44.324Z,107.30
2018-02-08T03:00:13.713Z,107.35
2018-02-08T03:02:42.391Z,113.40
2018-02-08T03:05:10.661Z,132.65
2018-02-08T03:07:39.154Z,127.25
2018-02-08T03:10:07.558Z,129.05
2018-02-08T03:29:53.797Z,98.00
2018-02-08T03:32:23.051Z,109.87
2018-02-08T03:34:51.824Z,127.10
2018-02-08T03:37:21.207Z,134.80
2018-02-08T03:39:50.089Z,120.47
2018-02-08T03:42:18.887Z,135.50
2018-02-08T03:44:47.587Z,111.57
2018-02-08T03:47:16.230Z,117.87
2018-02-08T03:49:44.946Z,120.93
2018-02-08T04:09:31.224Z,112.35
2018-02-08T04:11:59.709Z,111.68
2018-02-08T04:14:28.091Z,120.53
2018-02-08T04:16:57.677Z,136.45
2018-02-08T04:19:26.331Z,125.18
2018-02-08T04:21:55.035Z,130.45
2018-02-08T04:24:23.790Z,120.53
2018-02-08T04:26:52.054Z,104.60
2018-02-08T04:29:21.601Z,111.03
2018-02-08T04:49:07.440Z,95.87
2018-02-08T04:51:36.102Z,102.45
2018-02-08T04:54:05.419Z,96.70
2018-02-08T04:56:33.578Z,104.38
2018-02-08T04:59:03.246Z,109.43
2018-02-08T05:01:31.902Z,120.30
2018-02-08T05:04:01.169Z,112.82
2018-02-08T05:06:30.065Z,113.47
2018-02-08T05:08:59.082Z,115.88
2018-02-08T05:28:45.469Z,121.32
2018-02-08T05:31:14.226Z,108.87
2018-02-08T05:33:43.244Z,105.35
2018-02-08T05:36:11.484Z,111.03
2018-02-08T05:38:39.970Z,117.70
2018-02-08T05:41:09.845Z,103.35
2018-02-08T05:43:38.123Z,114.12
2018-02-08T05:46:07.015Z,118.05
2018-02-08T05:48:36.302Z,97.43
2018-02-08T06:08:21.938Z,113.85
2018-02-08T06:10:51.041Z,120.70
2018-02-08T06:13:20.180Z,111.65
2018-02-08T06:15:48.389Z,109.87
2018-02-08T06:18:17.936Z,103.07
2018-02-08T06:20:46.954Z,95.32
2018-02-08T06:23:15.049Z,101.45
2018-02-08T06:25:44.601Z,95.93
2018-02-08T06:28:13.870Z,105.07
2018-02-08T06:48:01.204Z,101.70
2018-02-08T06:50:30.282Z,98.97
2018-02-08T06:52:59.252Z,91.43
2018-02-08T06:55:28.200Z,116.47
2018-02-08T06:57:56.856Z,97.65
2018-02-08T07:00:25.849Z,98.30
2018-02-08T07:02:54.008Z,107.97
2018-02-08T07:05:22.873Z,99.47
2018-02-08T07:07:51.049Z,101.38
2018-02-08T07:27:35.304Z,75.80
2018-02-08T07:30:04.932Z,101.35
2018-02-08T07:32:34.164Z,111.65
2018-02-08T07:35:02.595Z,98.85
2018-02-08T07:37:31.843Z,94.15
2018-02-08T07:40:00.538Z,94.28
2018-02-08T07:42:29.865Z,85.68
2018-02-08T07:44:58.474Z,88.12
2018-02-08T07:47:27.495Z,106.90
2018-02-08T08:07:15.168Z,98.80
2018-02-08T08:09:44.475Z,106.07
2018-02-08T08:12:13.724Z,90.38
2018-02-08T08:14:43.341Z,77.12
2018-02-08T08:17:11.903Z,95.32
2018-02-08T08:19:40.388Z,86.45
2018-02-08T08:22:09.499Z,110.00
2018-02-08T08:24:38.218Z,91.90
2018-02-08T08:27:06.444Z,101.90
2018-02-08T08:46:51.274Z,94.50
2018-02-08T08:49:19.584Z,103.30
2018-02-08T08:51:48.032Z,95.70
2018-02-08T08:54:16.226Z,94.78
2018-02-08T08:56:44.850Z,104.03
2018-02-08T08:59:13.811Z,94.55
2018-02-08T09:01:43.342Z,98.40
2018-02-08T09:04:12.978Z,100.55
2018-02-08T09:06:43.218Z,113.43
2018-02-08T09:26:29.027Z,103.10
2018-02-08T09:28:58.177Z,96.32
2018-02-08T09:31:26.613Z,102.95
2018-02-08T09:33:54.836Z,94.57
2018-02-08T09:36:24.414Z,90.18
2018-02-08T09:38:52.803Z,97.18
2018-02-08T09:41:22.124Z,89.55
2018-02-08T09:43:51.250Z,98.80
2018-02-08T09:46:19.736Z,79.78
2018-02-08T10:06:04.044Z,101.30
2018-02-08T10:08:32.329Z,89.25
2018-02-08T10:11:01.018Z,82.12
2018-02-08T10:13:30.053Z,85.07
2018-02-08T10:15:59.679Z,95.20
2018-02-08T10:18:28.698Z,85.50
2018-02-08T10:20:58.489Z,85.13
2018-02-08T10:23:28.857Z,87.40
2018-02-08T10:25:58.661Z,89.62
2018-02-08T10:45:42.672Z,78.77
2018-02-08T10:48:11.088Z,91.33
2018-02-08T10:50:40.189Z,88.33
2018-02-08T10:53:09.329Z,97.10
2018-02-08T10:55:38.453Z,98.30
2018-02-08T10:58:07.305Z,89.03
2018-02-08T11:00:35.984Z,92.33
2018-02-08T11:03:05.202Z,93.97
2018-02-08T11:05:35.256Z,88.23
2018-02-08T11:25:21.532Z,93.30
2018-02-08T11:27:51.466Z,90.50
2018-02-08T11:30:20.139Z,94.80
2018-02-08T11:32:49.125Z,101.47
2018-02-08T11:35:18.464Z,95.57
2018-02-08T11:37:47.105Z,92.67
2018-02-08T11:40:16.547Z,96.60
2018-02-08T11:42:45.389Z,92.43
2018-02-08T11:45:15.138Z,93.47
2018-02-08T12:05:01.017Z,99.43
2018-02-08T12:07:29.758Z,99.30
2018-02-08T12:09:59.058Z,85.43
2018-02-08T12:12:28.182Z,90.03
2018-02-08T12:14:56.538Z,92.70
2018-02-08T12:17:26.349Z,73.27
2018-02-08T12:19:56.032Z,97.33
2018-02-08T12:22:25.646Z,91.10
2018-02-08T12:24:55.301Z,94.10
2018-02-08T12:44:43.166Z,95.40
2018-02-08T12:47:11.892Z,95.10
2018-02-08T12:49:41.050Z,100.03
2018-02-08T12:52:09.292Z,90.93
2018-02-08T12:54:38.201Z,94.63
2018-02-08T12:57:07.740Z,92.07
2018-02-08T12:59:37.477Z,90.10
2018-02-08T13:02:06.634Z,90.77
2018-02-08T13:04:36.086Z,101.47
2018-02-08T13:24:21.497Z,92.23
2018-02-08T13:26:50.794Z,95.50
2018-02-08T13:29:20.028Z,92.10
2018-02-08T13:31:50.347Z,86.93
2018-02-08T13:34:19.406Z,91.33
2018-02-08T13:36:47.687Z,86.17
2018-02-08T13:39:16.045Z,89.30
2018-02-08T13:41:45.513Z,88.53
2018-02-08T14:01:31.790Z,76.53
2018-02-08T14:04:00.532Z,82.25
2018-02-08T14:06:29.013Z,88.22
2018-02-08T14:08:59.000Z,86.37
2018-02-08T14:11:27.670Z,90.80
2018-02-08T14:13:57.001Z,85.43
2018-02-08T14:16:26.649Z,94.95
2018-02-08T14:19:01.103Z,92.03
2018-02-08T14:41:41.995Z,97.82
2018-02-08T14:44:12.291Z,96.03
2018-02-08T15:02:03.417Z,105.55
2018-02-08T15:04:32.850Z,107.12
2018-02-08T15:07:01.731Z,96.15
2018-02-08T15:09:30.808Z,80.95
2018-02-08T15:29:15.528Z,91.55
2018-02-08T15:31:44.292Z,96.43
2018-02-08T15:34:22.492Z,96.05
2018-02-08T15:36:51.047Z,92.43
2018-02-08T15:39:21.130Z,105.30
2018-02-08T15:41:50.244Z,100.75
2018-02-08T15:44:18.485Z,96.57
2018-02-08T15:46:47.414Z,88.93
2018-02-08T16:06:32.222Z,101.22
2018-02-08T16:09:00.410Z,92.35
2018-02-08T16:11:29.965Z,92.18
2018-02-08T16:13:58.163Z,102.70
2018-02-08T16:16:26.789Z,93.85
2018-02-08T16:18:55.924Z,97.05
2018-02-08T16:21:24.436Z,99.85
2018-02-08T16:23:52.559Z,108.43
2018-02-08T16:26:20.905Z,104.12
2018-02-08T16:46:04.687Z,102.22
2018-02-08T16:48:34.075Z,99.35
2018-02-08T16:51:03.552Z,107.72
2018-02-08T16:53:32.406Z,102.85
2018-02-08T16:56:01.908Z,97.85
2018-02-08T16:58:30.738Z,115.53
2018-02-08T17:00:59.997Z,107.80
2018-02-08T17:03:29.622Z,114.95
2018-02-08T17:05:58.236Z,118.22
2018-02-08T17:25:43.203Z,111.57
2018-02-08T17:28:11.544Z,122.35
2018-02-08T17:30:39.993Z,121.82
2018-02-08T17:33:09.406Z,116.45
2018-02-08T17:35:38.136Z,123.28
2018-02-08T17:38:07.267Z,115.70
2018-02-08T17:40:36.424Z,117.82
2018-02-08T17:43:05.482Z,127.53
2018-02-08T17:45:34.775Z,114.80
2018-02-08T18:05:19.282Z,133.65
2018-02-08T18:07:47.396Z,132.23
2018-02-08T18:10:15.921Z,136.57
2018-02-08T18:12:44.367Z,147.70
2018-02-08T18:15:13.797Z,130.45
2018-02-08T18:17:42.459Z,139.62
2018-02-08T18:20:11.892Z,129.32
2018-02-08T18:22:40.533Z,144.20
2018-02-08T18:25:09.395Z,132.10
2018-02-08T18:44:54.306Z,125.78
2018-02-08T18:47:23.408Z,139.52
2018-02-08T18:49:52.375Z,138.15
2018-02-08T18:52:21.306Z,151.73
2018-02-08T18:54:50.507Z,147.05
2018-02-08T18:57:19.171Z,165.90
2018-02-08T18:59:49.125Z,142.02
2018-02-08T19:02:17.522Z,152.23
2018-02-08T19:04:47.009Z,145.12
2018-02-08T19:24:31.926Z,133.45
2018-02-08T19:27:01.438Z,118.53
2018-02-08T19:29:30.005Z,123.05
2018-02-08T19:31:58.971Z,137.18
2018-02-08T19:34:28.367Z,127.47
2018-02-08T19:36:56.952Z,132.70
2018-02-08T19:39:30.927Z,139.27
2018-02-08T19:41:59.831Z,131.43
2018-02-08T20:05:39.144Z,135.48
2018-02-08T20:08:07.873Z,138.12
2018-02-08T20:10:36.204Z,147.87
2018-02-08T20:13:05.455Z,137.90
2018-02-08T20:15:35.586Z,136.30
2018-02-08T20:18:03.781Z,150.75
2018-02-08T20:20:32.280Z,147.62
2018-02-08T20:23:01.022Z,143.77
2018-02-08T20:25:29.221Z,139.30
2018-02-08T20:45:14.264Z,150.32
2018-02-08T20:47:42.522Z,150.00
2018-02-08T20:50:11.077Z,164.35
2018-02-08T20:52:39.432Z,179.65
2018-02-08T20:55:08.684Z,167.45
2018-02-08T20:57:36.873Z,156.77
2018-02-08T21:00:06.065Z,155.23
2018-02-08T21:02:34.652Z,159.50
2018-02-08T21:05:03.823Z,164.20
2018-02-08T21:24:49.852Z,164.13
2018-02-08T21:27:18.014Z,179.90
2018-02-08T21:29:46.731Z,180.70
2018-02-08T21:32:15.944Z,159.27
2018-02-08T21:34:44.637Z,164.85
2018-02-08T21:37:14.573Z,157.07
2018-02-08T21:39:43.585Z,168.73
2018-02-08T21:42:12.443Z,160.88
2018-02-08T21:44:41.257Z,161.30
2018-02-08T22:04:27.400Z,141.70
2018-02-08T22:06:56.587Z,127.43
2018-02-08T22:09:25.311Z,135.10
2018-02-08T22:11:53.279Z,135.20
2018-02-08T22:14:21.336Z,121.35
2018-02-08T22:16:49.516Z,126.40
2018-02-08T22:19:18.644Z,133.02
2018-02-08T22:21:47.078Z,136.20
2018-02-08T22:24:15.565Z,123.15
2018-02-08T22:44:01.276Z,127.10
2018-02-08T22:46:30.041Z,135.98
2018-02-08T22:48:58.528Z,127.47
2018-02-08T22:51:26.694Z,129.73
2018-02-08T22:53:55.811Z,138.32
2018-02-08T22:56:24.291Z,121.68
2018-02-08T22:58:52.993Z,149.55
2018-02-08T23:01:21.327Z,148.30
2018-02-08T23:03:49.635Z,144.70
2018-02-08T23:23:37.475Z,126.10
2018-02-08T23:26:07.781Z,124.18
2018-02-08T23:28:37.122Z,133.37
2018-02-08T23:31:05.459Z,134.95
2018-02-08T23:33:34.715Z,129.55
2018-02-08T23:36:03.394Z,117.32
2018-02-08T23:38:32.300Z,120.85
2018-02-08T23:41:00.735Z,142.65
2018-02-08T23:43:29.272Z,121.70
